sensor_id;sensor_type;location;lat;lon;timestamp;P1;durP1;ratioP1;P2;durP2;ratioP2
9759;SDS011;4919;48.792;9.202;2023-05-07T00:00:02;2.40;;;2.20;;
9759;SDS011;4919;48.792;9.202;2023-05-07T00:02:48;2.67;;;2.43;;
9759;SDS011;4919;48.792;9.202;2023-05-07T00:05:32;3.03;;;2.53;;
9759;SDS011;4919;48.792;9.202;2023-05-07T00:08:17;3.37;;;2.87;;
9759;SDS011;4919;48.792;9.202;2023-05-07T00:11:02;3.10;;;2.67;;
9759;SDS011;4919;48.792;9.202;2023-05-07T00:13:47;2.40;;;2.20;;
9759;SDS011;4919;48.792;9.202;2023-05-07T00:16:32;2.40;;;2.13;;
9759;SDS011;4919;48.792;9.202;2023-05-07T00:19:17;2.57;;;2.27;;
9759;SDS011;4919;48.792;9.202;2023-05-07T00:22:02;3.27;;;2.97;;
9759;SDS011;4919;48.792;9.202;2023-05-07T00:24:47;2.50;;;2.27;;
9759;SDS011;4919;48.792;9.202;2023-05-07T00:27:32;3.40;;;2.30;;
9759;SDS011;4919;48.792;9.202;2023-05-07T00:30:17;2.83;;;2.47;;
9759;SDS011;4919;48.792;9.202;2023-05-07T00:33:01;3.47;;;2.60;;
9759;SDS011;4919;48.792;9.202;2023-05-07T00:35:46;3.30;;;2.33;;
9759;SDS011;4919;48.792;9.202;2023-05-07T00:38:31;2.87;;;2.30;;
9759;SDS011;4919;48.792;9.202;2023-05-07T00:41:16;2.43;;;2.23;;
9759;SDS011;4919;48.792;9.202;2023-05-07T00:44:01;2.70;;;2.43;;
9759;SDS011;4919;48.792;9.202;2023-05-07T00:46:46;2.57;;;2.20;;
9759;SDS011;4919;48.792;9.202;2023-05-07T00:49:37;2.10;;;1.83;;
9759;SDS011;4919;48.792;9.202;2023-05-07T00:52:23;2.60;;;2.40;;
9759;SDS011;4919;48.792;9.202;2023-05-07T00:55:10;2.77;;;2.30;;
9759;SDS011;4919;48.792;9.202;2023-05-07T00:57:55;2.17;;;1.90;;
9759;SDS011;4919;48.792;9.202;2023-05-07T01:00:40;2.93;;;2.43;;
9759;SDS011;4919;48.792;9.202;2023-05-07T01:03:25;2.60;;;2.40;;
9759;SDS011;4919;48.792;9.202;2023-05-07T01:06:10;3.43;;;2.20;;
9759;SDS011;4919;48.792;9.202;2023-05-07T01:08:56;2.43;;;2.23;;
9759;SDS011;4919;48.792;9.202;2023-05-07T01:11:41;2.73;;;2.27;;
9759;SDS011;4919;48.792;9.202;2023-05-07T01:14:26;2.43;;;2.00;;
9759;SDS011;4919;48.792;9.202;2023-05-07T01:17:11;2.20;;;2.00;;
9759;SDS011;4919;48.792;9.202;2023-05-07T01:19:56;2.40;;;2.20;;
9759;SDS011;4919;48.792;9.202;2023-05-07T01:22:41;2.63;;;1.97;;
9759;SDS011;4919;48.792;9.202;2023-05-07T01:25:27;1.87;;;1.63;;
9759;SDS011;4919;48.792;9.202;2023-05-07T01:28:13;2.10;;;1.90;;
9759;SDS011;4919;48.792;9.202;2023-05-07T01:31:00;2.30;;;2.03;;
9759;SDS011;4919;48.792;9.202;2023-05-07T01:33:47;2.00;;;1.80;;
9759;SDS011;4919;48.792;9.202;2023-05-07T01:36:33;4.10;;;2.80;;
9759;SDS011;4919;48.792;9.202;2023-05-07T01:39:23;2.73;;;2.47;;
9759;SDS011;4919;48.792;9.202;2023-05-07T01:42:08;2.77;;;2.30;;
9759;SDS011;4919;48.792;9.202;2023-05-07T01:44:54;2.13;;;1.93;;
9759;SDS011;4919;48.792;9.202;2023-05-07T01:47:39;2.97;;;1.93;;
9759;SDS011;4919;48.792;9.202;2023-05-07T01:50:24;3.57;;;2.60;;
9759;SDS011;4919;48.792;9.202;2023-05-07T01:53:10;2.83;;;2.50;;
9759;SDS011;4919;48.792;9.202;2023-05-07T01:55:54;3.20;;;2.60;;
9759;SDS011;4919;48.792;9.202;2023-05-07T01:58:39;2.90;;;2.37;;
9759;SDS011;4919;48.792;9.202;2023-05-07T02:01:24;2.83;;;2.57;;
9759;SDS011;4919;48.792;9.202;2023-05-07T02:04:09;2.97;;;2.20;;
9759;SDS011;4919;48.792;9.202;2023-05-07T02:06:54;2.60;;;2.07;;
9759;SDS011;4919;48.792;9.202;2023-05-07T02:09:39;2.50;;;2.27;;
9759;SDS011;4919;48.792;9.202;2023-05-07T02:12:23;2.20;;;1.93;;
9759;SDS011;4919;48.792;9.202;2023-05-07T02:15:08;3.13;;;2.63;;
9759;SDS011;4919;48.792;9.202;2023-05-07T02:18:04;2.30;;;2.10;;
9759;SDS011;4919;48.792;9.202;2023-05-07T02:20:50;2.40;;;2.20;;
9759;SDS011;4919;48.792;9.202;2023-05-07T02:23:34;2.50;;;2.30;;
9759;SDS011;4919;48.792;9.202;2023-05-07T02:26:19;2.90;;;2.37;;
9759;SDS011;4919;48.792;9.202;2023-05-07T02:29:04;2.23;;;1.93;;
9759;SDS011;4919;48.792;9.202;2023-05-07T02:31:49;2.43;;;2.10;;
9759;SDS011;4919;48.792;9.202;2023-05-07T02:34:34;2.30;;;2.03;;
9759;SDS011;4919;48.792;9.202;2023-05-07T02:37:19;2.70;;;2.50;;
9759;SDS011;4919;48.792;9.202;2023-05-07T02:40:04;3.23;;;2.60;;
9759;SDS011;4919;48.792;9.202;2023-05-07T02:42:50;2.70;;;2.37;;
9759;SDS011;4919;48.792;9.202;2023-05-07T02:45:34;3.73;;;2.77;;
9759;SDS011;4919;48.792;9.202;2023-05-07T02:48:19;2.10;;;1.90;;
9759;SDS011;4919;48.792;9.202;2023-05-07T02:51:04;3.87;;;2.60;;
9759;SDS011;4919;48.792;9.202;2023-05-07T02:53:49;2.10;;;1.90;;
9759;SDS011;4919;48.792;9.202;2023-05-07T02:56:34;3.00;;;1.80;;
9759;SDS011;4919;48.792;9.202;2023-05-07T02:59:19;2.33;;;1.87;;
9759;SDS011;4919;48.792;9.202;2023-05-07T03:02:03;2.67;;;2.30;;
9759;SDS011;4919;48.792;9.202;2023-05-07T03:04:48;2.47;;;2.17;;
9759;SDS011;4919;48.792;9.202;2023-05-07T03:07:34;2.33;;;2.13;;
9759;SDS011;4919;48.792;9.202;2023-05-07T03:10:19;2.20;;;2.00;;
9759;SDS011;4919;48.792;9.202;2023-05-07T03:13:04;2.63;;;2.40;;
9759;SDS011;4919;48.792;9.202;2023-05-07T03:15:49;2.30;;;2.10;;
9759;SDS011;4919;48.792;9.202;2023-05-07T03:18:34;3.00;;;2.43;;
9759;SDS011;4919;48.792;9.202;2023-05-07T03:21:19;2.67;;;2.40;;
9759;SDS011;4919;48.792;9.202;2023-05-07T03:24:04;3.43;;;2.27;;
9759;SDS011;4919;48.792;9.202;2023-05-07T03:26:49;3.73;;;2.27;;
9759;SDS011;4919;48.792;9.202;2023-05-07T03:29:34;2.77;;;2.37;;
9759;SDS011;4919;48.792;9.202;2023-05-07T03:32:18;3.90;;;2.20;;
9759;SDS011;4919;48.792;9.202;2023-05-07T03:35:03;2.90;;;2.30;;
9759;SDS011;4919;48.792;9.202;2023-05-07T03:37:48;3.27;;;2.37;;
9759;SDS011;4919;48.792;9.202;2023-05-07T03:40:33;2.30;;;2.10;;
9759;SDS011;4919;48.792;9.202;2023-05-07T03:43:18;3.27;;;2.60;;
9759;SDS011;4919;48.792;9.202;2023-05-07T03:46:03;3.47;;;2.37;;
9759;SDS011;4919;48.792;9.202;2023-05-07T03:48:48;2.53;;;2.33;;
9759;SDS011;4919;48.792;9.202;2023-05-07T03:51:33;2.70;;;2.33;;
9759;SDS011;4919;48.792;9.202;2023-05-07T03:54:18;2.77;;;2.27;;
9759;SDS011;4919;48.792;9.202;2023-05-07T03:57:02;2.60;;;2.23;;
9759;SDS011;4919;48.792;9.202;2023-05-07T03:59:47;2.93;;;2.40;;
9759;SDS011;4919;48.792;9.202;2023-05-07T04:02:32;3.10;;;2.60;;
9759;SDS011;4919;48.792;9.202;2023-05-07T04:05:17;3.43;;;2.33;;
9759;SDS011;4919;48.792;9.202;2023-05-07T04:08:02;2.77;;;2.33;;
9759;SDS011;4919;48.792;9.202;2023-05-07T04:10:47;2.30;;;2.10;;
9759;SDS011;4919;48.792;9.202;2023-05-07T04:13:32;2.40;;;2.20;;
9759;SDS011;4919;48.792;9.202;2023-05-07T04:16:17;3.33;;;2.20;;
9759;SDS011;4919;48.792;9.202;2023-05-07T04:19:02;2.90;;;2.50;;
9759;SDS011;4919;48.792;9.202;2023-05-07T04:21:46;3.83;;;2.53;;
9759;SDS011;4919;48.792;9.202;2023-05-07T04:24:32;2.20;;;2.00;;
9759;SDS011;4919;48.792;9.202;2023-05-07T04:27:16;4.23;;;2.73;;
9759;SDS011;4919;48.792;9.202;2023-05-07T04:30:03;2.30;;;1.93;;
9759;SDS011;4919;48.792;9.202;2023-05-07T04:32:48;1.97;;;1.67;;
9759;SDS011;4919;48.792;9.202;2023-05-07T04:35:33;2.23;;;2.03;;
9759;SDS011;4919;48.792;9.202;2023-05-07T04:38:19;2.97;;;2.43;;
9759;SDS011;4919;48.792;9.202;2023-05-07T04:41:04;3.63;;;2.30;;
9759;SDS011;4919;48.792;9.202;2023-05-07T04:43:50;3.13;;;2.00;;
9759;SDS011;4919;48.792;9.202;2023-05-07T04:46:35;3.40;;;2.67;;
9759;SDS011;4919;48.792;9.202;2023-05-07T04:49:20;2.67;;;2.30;;
9759;SDS011;4919;48.792;9.202;2023-05-07T04:52:04;2.67;;;2.07;;
9759;SDS011;4919;48.792;9.202;2023-05-07T04:54:49;2.10;;;1.90;;
9759;SDS011;4919;48.792;9.202;2023-05-07T04:57:34;2.80;;;2.47;;
9759;SDS011;4919;48.792;9.202;2023-05-07T05:00:19;2.00;;;1.90;;
9759;SDS011;4919;48.792;9.202;2023-05-07T05:03:04;3.23;;;2.40;;
9759;SDS011;4919;48.792;9.202;2023-05-07T05:05:52;3.20;;;2.27;;
9759;SDS011;4919;48.792;9.202;2023-05-07T05:08:37;2.20;;;1.93;;
9759;SDS011;4919;48.792;9.202;2023-05-07T05:11:22;2.10;;;1.90;;
9759;SDS011;4919;48.792;9.202;2023-05-07T05:14:06;2.20;;;2.00;;
9759;SDS011;4919;48.792;9.202;2023-05-07T05:16:52;2.00;;;1.73;;
9759;SDS011;4919;48.792;9.202;2023-05-07T05:19:36;2.07;;;1.93;;
9759;SDS011;4919;48.792;9.202;2023-05-07T05:22:21;1.70;;;1.60;;
9759;SDS011;4919;48.792;9.202;2023-05-07T05:25:06;2.23;;;1.97;;
9759;SDS011;4919;48.792;9.202;2023-05-07T05:27:51;1.93;;;1.77;;
9759;SDS011;4919;48.792;9.202;2023-05-07T05:30:36;2.87;;;1.90;;
9759;SDS011;4919;48.792;9.202;2023-05-07T05:33:21;2.33;;;1.97;;
9759;SDS011;4919;48.792;9.202;2023-05-07T05:36:06;2.70;;;2.07;;
9759;SDS011;4919;48.792;9.202;2023-05-07T05:38:55;2.07;;;1.60;;
9759;SDS011;4919;48.792;9.202;2023-05-07T05:41:39;1.90;;;1.60;;
9759;SDS011;4919;48.792;9.202;2023-05-07T05:44:24;2.57;;;1.87;;
9759;SDS011;4919;48.792;9.202;2023-05-07T05:47:09;2.23;;;1.87;;
9759;SDS011;4919;48.792;9.202;2023-05-07T05:49:54;2.17;;;1.93;;
9759;SDS011;4919;48.792;9.202;2023-05-07T05:52:39;1.77;;;1.67;;
9759;SDS011;4919;48.792;9.202;2023-05-07T05:55:24;2.10;;;1.90;;
9759;SDS011;4919;48.792;9.202;2023-05-07T05:58:09;1.80;;;1.70;;
9759;SDS011;4919;48.792;9.202;2023-05-07T06:00:53;2.10;;;1.77;;
9759;SDS011;4919;48.792;9.202;2023-05-07T06:03:38;1.63;;;1.53;;
9759;SDS011;4919;48.792;9.202;2023-05-07T06:06:23;1.50;;;1.40;;
9759;SDS011;4919;48.792;9.202;2023-05-07T06:09:08;2.00;;;1.60;;
9759;SDS011;4919;48.792;9.202;2023-05-07T06:11:53;1.70;;;1.60;;
9759;SDS011;4919;48.792;9.202;2023-05-07T06:14:38;2.03;;;1.83;;
9759;SDS011;4919;48.792;9.202;2023-05-07T06:17:23;1.40;;;1.30;;
9759;SDS011;4919;48.792;9.202;2023-05-07T06:20:08;1.90;;;1.70;;
9759;SDS011;4919;48.792;9.202;2023-05-07T06:22:53;2.80;;;1.60;;
9759;SDS011;4919;48.792;9.202;2023-05-07T06:25:38;1.67;;;1.57;;
9759;SDS011;4919;48.792;9.202;2023-05-07T06:28:22;1.93;;;1.60;;
9759;SDS011;4919;48.792;9.202;2023-05-07T06:31:14;1.57;;;1.47;;
9759;SDS011;4919;48.792;9.202;2023-05-07T06:34:00;2.07;;;1.87;;
9759;SDS011;4919;48.792;9.202;2023-05-07T06:36:45;2.80;;;1.80;;
9759;SDS011;4919;48.792;9.202;2023-05-07T06:39:30;2.60;;;2.00;;
9759;SDS011;4919;48.792;9.202;2023-05-07T06:42:14;3.07;;;1.83;;
9759;SDS011;4919;48.792;9.202;2023-05-07T06:44:59;1.50;;;1.40;;
9759;SDS011;4919;48.792;9.202;2023-05-07T06:47:44;3.33;;;1.77;;
9759;SDS011;4919;48.792;9.202;2023-05-07T06:50:29;1.80;;;1.70;;
9759;SDS011;4919;48.792;9.202;2023-05-07T06:53:14;1.93;;;1.60;;
9759;SDS011;4919;48.792;9.202;2023-05-07T06:55:58;1.87;;;1.70;;
9759;SDS011;4919;48.792;9.202;2023-05-07T06:58:43;2.10;;;1.87;;
9759;SDS011;4919;48.792;9.202;2023-05-07T07:01:28;1.83;;;1.70;;
9759;SDS011;4919;48.792;9.202;2023-05-07T07:04:13;3.63;;;2.00;;
9759;SDS011;4919;48.792;9.202;2023-05-07T07:06:58;1.83;;;1.70;;
9759;SDS011;4919;48.792;9.202;2023-05-07T07:09:43;2.47;;;1.77;;
9759;SDS011;4919;48.792;9.202;2023-05-07T07:12:28;1.90;;;1.70;;
9759;SDS011;4919;48.792;9.202;2023-05-07T07:15:13;1.67;;;1.57;;
9759;SDS011;4919;48.792;9.202;2023-05-07T07:17:58;1.43;;;1.33;;
9759;SDS011;4919;48.792;9.202;2023-05-07T07:20:42;1.40;;;1.30;;
9759;SDS011;4919;48.792;9.202;2023-05-07T07:23:27;1.53;;;1.43;;
9759;SDS011;4919;48.792;9.202;2023-05-07T07:26:12;1.60;;;1.50;;
9759;SDS011;4919;48.792;9.202;2023-05-07T07:28:57;1.90;;;1.63;;
9759;SDS011;4919;48.792;9.202;2023-05-07T07:31:42;2.33;;;2.00;;
9759;SDS011;4919;48.792;9.202;2023-05-07T07:34:27;1.40;;;1.30;;
9759;SDS011;4919;48.792;9.202;2023-05-07T07:37:12;2.13;;;1.60;;
9759;SDS011;4919;48.792;9.202;2023-05-07T07:39:57;1.50;;;1.40;;
9759;SDS011;4919;48.792;9.202;2023-05-07T07:42:41;1.80;;;1.70;;
9759;SDS011;4919;48.792;9.202;2023-05-07T07:45:26;1.63;;;1.53;;
9759;SDS011;4919;48.792;9.202;2023-05-07T07:48:11;1.77;;;1.60;;
9759;SDS011;4919;48.792;9.202;2023-05-07T07:50:56;1.90;;;1.70;;
9759;SDS011;4919;48.792;9.202;2023-05-07T07:53:41;1.67;;;1.57;;
9759;SDS011;4919;48.792;9.202;2023-05-07T07:56:25;1.63;;;1.50;;
9759;SDS011;4919;48.792;9.202;2023-05-07T07:59:10;2.00;;;1.80;;
9759;SDS011;4919;48.792;9.202;2023-05-07T08:01:55;1.80;;;1.70;;
9759;SDS011;4919;48.792;9.202;2023-05-07T08:04:40;1.53;;;1.43;;
9759;SDS011;4919;48.792;9.202;2023-05-07T08:07:25;1.67;;;1.57;;
9759;SDS011;4919;48.792;9.202;2023-05-07T08:10:10;1.47;;;1.33;;
9759;SDS011;4919;48.792;9.202;2023-05-07T08:12:55;2.30;;;1.60;;
9759;SDS011;4919;48.792;9.202;2023-05-07T08:15:40;2.97;;;1.70;;
9759;SDS011;4919;48.792;9.202;2023-05-07T08:18:25;1.27;;;1.17;;
9759;SDS011;4919;48.792;9.202;2023-05-07T08:21:10;1.63;;;1.40;;
9759;SDS011;4919;48.792;9.202;2023-05-07T08:23:55;1.50;;;1.40;;
9759;SDS011;4919;48.792;9.202;2023-05-07T08:26:40;1.50;;;1.40;;
9759;SDS011;4919;48.792;9.202;2023-05-07T08:29:24;1.97;;;1.23;;
9759;SDS011;4919;48.792;9.202;2023-05-07T08:32:09;1.50;;;1.40;;
9759;SDS011;4919;48.792;9.202;2023-05-07T08:34:54;1.40;;;1.30;;
9759;SDS011;4919;48.792;9.202;2023-05-07T08:37:39;1.23;;;1.13;;
9759;SDS011;4919;48.792;9.202;2023-05-07T08:40:25;2.10;;;1.57;;
9759;SDS011;4919;48.792;9.202;2023-05-07T08:43:14;1.53;;;1.43;;
9759;SDS011;4919;48.792;9.202;2023-05-07T08:45:58;1.47;;;1.37;;
9759;SDS011;4919;48.792;9.202;2023-05-07T08:48:47;1.53;;;1.43;;
9759;SDS011;4919;48.792;9.202;2023-05-07T08:51:33;2.00;;;1.80;;
9759;SDS011;4919;48.792;9.202;2023-05-07T08:54:18;0.97;;;0.97;;
9759;SDS011;4919;48.792;9.202;2023-05-07T08:57:04;1.80;;;1.50;;
9759;SDS011;4919;48.792;9.202;2023-05-07T08:59:49;1.37;;;1.27;;
9759;SDS011;4919;48.792;9.202;2023-05-07T09:02:35;1.50;;;1.40;;
9759;SDS011;4919;48.792;9.202;2023-05-07T09:05:20;1.20;;;1.13;;
9759;SDS011;4919;48.792;9.202;2023-05-07T09:08:06;1.30;;;1.20;;
9759;SDS011;4919;48.792;9.202;2023-05-07T09:10:51;1.17;;;1.13;;
9759;SDS011;4919;48.792;9.202;2023-05-07T09:13:36;1.50;;;1.40;;
9759;SDS011;4919;48.792;9.202;2023-05-07T09:16:21;1.20;;;1.10;;
9759;SDS011;4919;48.792;9.202;2023-05-07T09:19:06;1.50;;;1.40;;
9759;SDS011;4919;48.792;9.202;2023-05-07T09:22:01;1.20;;;1.10;;
9759;SDS011;4919;48.792;9.202;2023-05-07T09:24:50;1.10;;;1.00;;
9759;SDS011;4919;48.792;9.202;2023-05-07T09:27:35;0.97;;;0.90;;
9759;SDS011;4919;48.792;9.202;2023-05-07T09:30:20;1.40;;;1.30;;
9759;SDS011;4919;48.792;9.202;2023-05-07T09:33:05;0.83;;;0.83;;
9759;SDS011;4919;48.792;9.202;2023-05-07T09:35:53;1.00;;;1.00;;
9759;SDS011;4919;48.792;9.202;2023-05-07T09:38:38;1.10;;;1.00;;
9759;SDS011;4919;48.792;9.202;2023-05-07T09:41:23;0.90;;;0.90;;
9759;SDS011;4919;48.792;9.202;2023-05-07T09:44:08;1.00;;;1.00;;
9759;SDS011;4919;48.792;9.202;2023-05-07T09:46:54;1.10;;;1.00;;
9759;SDS011;4919;48.792;9.202;2023-05-07T09:49:39;2.00;;;1.07;;
9759;SDS011;4919;48.792;9.202;2023-05-07T09:52:24;1.77;;;1.20;;
9759;SDS011;4919;48.792;9.202;2023-05-07T09:55:11;0.93;;;0.87;;
9759;SDS011;4919;48.792;9.202;2023-05-07T09:57:57;1.00;;;1.00;;
9759;SDS011;4919;48.792;9.202;2023-05-07T10:00:42;0.80;;;0.80;;
9759;SDS011;4919;48.792;9.202;2023-05-07T10:03:27;0.83;;;0.83;;
9759;SDS011;4919;48.792;9.202;2023-05-07T10:06:15;0.93;;;0.93;;
9759;SDS011;4919;48.792;9.202;2023-05-07T10:09:01;0.90;;;0.90;;
9759;SDS011;4919;48.792;9.202;2023-05-07T10:11:48;1.30;;;1.03;;
9759;SDS011;4919;48.792;9.202;2023-05-07T10:14:33;1.23;;;0.93;;
9759;SDS011;4919;48.792;9.202;2023-05-07T10:17:18;1.00;;;0.93;;
9759;SDS011;4919;48.792;9.202;2023-05-07T10:20:04;0.90;;;0.90;;
9759;SDS011;4919;48.792;9.202;2023-05-07T10:22:50;1.80;;;1.03;;
9759;SDS011;4919;48.792;9.202;2023-05-07T10:25:38;0.63;;;0.63;;
9759;SDS011;4919;48.792;9.202;2023-05-07T10:28:23;0.83;;;0.83;;
9759;SDS011;4919;48.792;9.202;2023-05-07T10:34:39;1.20;;;1.10;;
9759;SDS011;4919;48.792;9.202;2023-05-07T10:37:27;1.60;;;1.00;;
9759;SDS011;4919;48.792;9.202;2023-05-07T10:40:12;0.90;;;0.90;;
9759;SDS011;4919;48.792;9.202;2023-05-07T10:42:59;0.97;;;0.97;;
9759;SDS011;4919;48.792;9.202;2023-05-07T10:46:31;1.20;;;1.10;;
9759;SDS011;4919;48.792;9.202;2023-05-07T10:51:46;1.60;;;1.10;;
9759;SDS011;4919;48.792;9.202;2023-05-07T10:55:21;1.10;;;1.00;;
9759;SDS011;4919;48.792;9.202;2023-05-07T11:01:09;0.80;;;0.80;;
9759;SDS011;4919;48.792;9.202;2023-05-07T11:04:15;1.23;;;1.07;;
9759;SDS011;4919;48.792;9.202;2023-05-07T11:15:33;1.50;;;1.23;;
9759;SDS011;4919;48.792;9.202;2023-05-07T11:18:20;0.90;;;0.90;;
9759;SDS011;4919;48.792;9.202;2023-05-07T11:21:05;1.13;;;1.07;;
9759;SDS011;4919;48.792;9.202;2023-05-07T11:27:09;1.20;;;1.10;;
9759;SDS011;4919;48.792;9.202;2023-05-07T11:29:46;1.00;;;1.00;;
9759;SDS011;4919;48.792;9.202;2023-05-07T11:32:31;1.00;;;1.00;;
9759;SDS011;4919;48.792;9.202;2023-05-07T11:35:16;1.37;;;1.27;;
9759;SDS011;4919;48.792;9.202;2023-05-07T11:38:02;1.20;;;1.07;;
9759;SDS011;4919;48.792;9.202;2023-05-07T11:40:54;1.20;;;1.17;;
9759;SDS011;4919;48.792;9.202;2023-05-07T11:43:56;0.90;;;0.90;;
9759;SDS011;4919;48.792;9.202;2023-05-07T11:46:42;1.27;;;1.17;;
9759;SDS011;4919;48.792;9.202;2023-05-07T11:49:27;1.00;;;1.00;;
9759;SDS011;4919;48.792;9.202;2023-05-07T11:52:13;0.90;;;0.90;;
9759;SDS011;4919;48.792;9.202;2023-05-07T11:54:58;1.63;;;1.17;;
9759;SDS011;4919;48.792;9.202;2023-05-07T11:57:43;0.97;;;0.97;;
9759;SDS011;4919;48.792;9.202;2023-05-07T12:00:28;1.37;;;1.10;;
9759;SDS011;4919;48.792;9.202;2023-05-07T12:03:13;1.00;;;1.00;;
9759;SDS011;4919;48.792;9.202;2023-05-07T12:05:59;0.93;;;0.90;;
9759;SDS011;4919;48.792;9.202;2023-05-07T12:08:44;0.90;;;0.90;;
9759;SDS011;4919;48.792;9.202;2023-05-07T12:11:30;0.80;;;0.80;;
9759;SDS011;4919;48.792;9.202;2023-05-07T12:14:15;1.17;;;1.10;;
9759;SDS011;4919;48.792;9.202;2023-05-07T12:17:00;0.83;;;0.83;;
9759;SDS011;4919;48.792;9.202;2023-05-07T12:19:45;0.90;;;0.90;;
9759;SDS011;4919;48.792;9.202;2023-05-07T12:22:30;1.10;;;1.00;;
9759;SDS011;4919;48.792;9.202;2023-05-07T12:25:14;0.80;;;0.80;;
9759;SDS011;4919;48.792;9.202;2023-05-07T12:28:03;1.13;;;1.03;;
9759;SDS011;4919;48.792;9.202;2023-05-07T12:30:49;1.67;;;1.00;;
9759;SDS011;4919;48.792;9.202;2023-05-07T12:33:35;1.27;;;1.17;;
9759;SDS011;4919;48.792;9.202;2023-05-07T12:36:20;1.37;;;1.17;;
9759;SDS011;4919;48.792;9.202;2023-05-07T12:39:05;1.07;;;1.00;;
9759;SDS011;4919;48.792;9.202;2023-05-07T12:44:43;0.97;;;0.97;;
9759;SDS011;4919;48.792;9.202;2023-05-07T12:47:30;1.00;;;1.00;;
9759;SDS011;4919;48.792;9.202;2023-05-07T12:50:15;0.93;;;0.93;;
9759;SDS011;4919;48.792;9.202;2023-05-07T12:53:00;1.20;;;1.10;;
9759;SDS011;4919;48.792;9.202;2023-05-07T12:55:55;1.10;;;1.10;;
9759;SDS011;4919;48.792;9.202;2023-05-07T12:58:40;0.90;;;0.90;;
9759;SDS011;4919;48.792;9.202;2023-05-07T13:01:28;1.47;;;0.90;;
9759;SDS011;4919;48.792;9.202;2023-05-07T13:04:14;1.53;;;1.00;;
9759;SDS011;4919;48.792;9.202;2023-05-07T13:06:59;1.00;;;1.00;;
9759;SDS011;4919;48.792;9.202;2023-05-07T13:09:44;1.30;;;1.20;;
9759;SDS011;4919;48.792;9.202;2023-05-07T13:12:29;1.73;;;1.30;;
9759;SDS011;4919;48.792;9.202;2023-05-07T13:15:14;0.93;;;0.93;;
9759;SDS011;4919;48.792;9.202;2023-05-07T13:17:59;1.13;;;1.03;;
9759;SDS011;4919;48.792;9.202;2023-05-07T13:20:44;1.10;;;1.00;;
9759;SDS011;4919;48.792;9.202;2023-05-07T13:23:29;1.10;;;1.10;;
9759;SDS011;4919;48.792;9.202;2023-05-07T13:26:14;0.97;;;0.97;;
9759;SDS011;4919;48.792;9.202;2023-05-07T13:28:58;1.03;;;0.93;;
9759;SDS011;4919;48.792;9.202;2023-05-07T13:31:43;1.10;;;1.10;;
9759;SDS011;4919;48.792;9.202;2023-05-07T13:34:28;1.00;;;1.00;;
9759;SDS011;4919;48.792;9.202;2023-05-07T13:37:13;0.90;;;0.90;;
9759;SDS011;4919;48.792;9.202;2023-05-07T13:39:58;1.20;;;1.10;;
9759;SDS011;4919;48.792;9.202;2023-05-07T13:42:42;1.03;;;1.03;;
9759;SDS011;4919;48.792;9.202;2023-05-07T13:45:30;0.93;;;0.93;;
9759;SDS011;4919;48.792;9.202;2023-05-07T13:48:15;0.90;;;0.90;;
9759;SDS011;4919;48.792;9.202;2023-05-07T13:51:00;0.90;;;0.90;;
9759;SDS011;4919;48.792;9.202;2023-05-07T13:53:45;1.17;;;0.90;;
9759;SDS011;4919;48.792;9.202;2023-05-07T13:56:30;0.80;;;0.80;;
9759;SDS011;4919;48.792;9.202;2023-05-07T13:59:14;0.83;;;0.83;;
9759;SDS011;4919;48.792;9.202;2023-05-07T14:01:59;1.13;;;1.03;;
9759;SDS011;4919;48.792;9.202;2023-05-07T14:04:44;1.10;;;1.10;;
9759;SDS011;4919;48.792;9.202;2023-05-07T14:07:29;1.00;;;0.90;;
9759;SDS011;4919;48.792;9.202;2023-05-07T14:10:14;1.83;;;1.10;;
9759;SDS011;4919;48.792;9.202;2023-05-07T14:12:58;1.10;;;1.00;;
9759;SDS011;4919;48.792;9.202;2023-05-07T14:15:43;0.97;;;0.90;;
9759;SDS011;4919;48.792;9.202;2023-05-07T14:18:28;0.87;;;0.87;;
9759;SDS011;4919;48.792;9.202;2023-05-07T14:21:13;1.20;;;1.10;;
9759;SDS011;4919;48.792;9.202;2023-05-07T14:23:58;0.90;;;0.90;;
9759;SDS011;4919;48.792;9.202;2023-05-07T14:26:43;1.30;;;1.10;;
9759;SDS011;4919;48.792;9.202;2023-05-07T14:29:28;1.17;;;1.10;;
9759;SDS011;4919;48.792;9.202;2023-05-07T14:32:13;0.97;;;0.97;;
9759;SDS011;4919;48.792;9.202;2023-05-07T14:34:58;1.00;;;0.93;;
9759;SDS011;4919;48.792;9.202;2023-05-07T14:37:43;1.10;;;1.00;;
9759;SDS011;4919;48.792;9.202;2023-05-07T14:40:28;1.30;;;1.20;;
9759;SDS011;4919;48.792;9.202;2023-05-07T14:43:13;1.07;;;1.07;;
9759;SDS011;4919;48.792;9.202;2023-05-07T14:45:57;1.00;;;1.00;;
9759;SDS011;4919;48.792;9.202;2023-05-07T14:48:43;1.50;;;1.40;;
9759;SDS011;4919;48.792;9.202;2023-05-07T14:51:28;1.70;;;1.60;;
9759;SDS011;4919;48.792;9.202;2023-05-07T14:54:13;1.10;;;1.10;;
9759;SDS011;4919;48.792;9.202;2023-05-07T14:56:58;1.17;;;1.10;;
9759;SDS011;4919;48.792;9.202;2023-05-07T14:59:43;1.20;;;1.10;;
9759;SDS011;4919;48.792;9.202;2023-05-07T15:02:28;1.00;;;1.00;;
9759;SDS011;4919;48.792;9.202;2023-05-07T15:05:13;1.13;;;1.10;;
9759;SDS011;4919;48.792;9.202;2023-05-07T15:07:58;1.87;;;1.70;;
9759;SDS011;4919;48.792;9.202;2023-05-07T15:10:43;1.40;;;1.07;;
9759;SDS011;4919;48.792;9.202;2023-05-07T15:13:28;1.30;;;1.20;;
9759;SDS011;4919;48.792;9.202;2023-05-07T15:16:13;0.93;;;0.93;;
9759;SDS011;4919;48.792;9.202;2023-05-07T15:18:58;1.10;;;1.10;;
9759;SDS011;4919;48.792;9.202;2023-05-07T15:21:43;1.40;;;1.30;;
9759;SDS011;4919;48.792;9.202;2023-05-07T15:24:28;1.03;;;1.03;;
9759;SDS011;4919;48.792;9.202;2023-05-07T15:27:13;1.60;;;1.20;;
9759;SDS011;4919;48.792;9.202;2023-05-07T15:29:58;1.30;;;1.20;;
9759;SDS011;4919;48.792;9.202;2023-05-07T15:32:43;1.40;;;1.30;;
9759;SDS011;4919;48.792;9.202;2023-05-07T15:35:28;1.10;;;1.00;;
9759;SDS011;4919;48.792;9.202;2023-05-07T15:38:13;1.33;;;1.00;;
9759;SDS011;4919;48.792;9.202;2023-05-07T15:40:57;2.17;;;1.37;;
9759;SDS011;4919;48.792;9.202;2023-05-07T15:43:43;1.10;;;1.10;;
9759;SDS011;4919;48.792;9.202;2023-05-07T15:46:30;1.00;;;1.00;;
9759;SDS011;4919;48.792;9.202;2023-05-07T15:49:15;0.90;;;0.90;;
9759;SDS011;4919;48.792;9.202;2023-05-07T15:52:00;1.00;;;1.00;;
9759;SDS011;4919;48.792;9.202;2023-05-07T15:54:45;1.00;;;1.00;;
9759;SDS011;4919;48.792;9.202;2023-05-07T15:57:29;1.10;;;1.10;;
9759;SDS011;4919;48.792;9.202;2023-05-07T16:00:14;1.00;;;1.00;;
9759;SDS011;4919;48.792;9.202;2023-05-07T16:02:59;1.30;;;1.20;;
9759;SDS011;4919;48.792;9.202;2023-05-07T16:05:44;1.00;;;1.00;;
9759;SDS011;4919;48.792;9.202;2023-05-07T16:08:30;1.30;;;1.20;;
9759;SDS011;4919;48.792;9.202;2023-05-07T16:11:14;2.00;;;1.80;;
9759;SDS011;4919;48.792;9.202;2023-05-07T16:13:59;1.27;;;1.17;;
9759;SDS011;4919;48.792;9.202;2023-05-07T16:16:44;1.50;;;1.30;;
9759;SDS011;4919;48.792;9.202;2023-05-07T16:19:29;1.33;;;1.23;;
9759;SDS011;4919;48.792;9.202;2023-05-07T16:22:14;1.00;;;1.00;;
9759;SDS011;4919;48.792;9.202;2023-05-07T16:24:59;1.17;;;1.07;;
9759;SDS011;4919;48.792;9.202;2023-05-07T16:27:43;1.10;;;1.10;;
9759;SDS011;4919;48.792;9.202;2023-05-07T16:30:28;1.50;;;1.40;;
9759;SDS011;4919;48.792;9.202;2023-05-07T16:33:13;1.23;;;1.17;;
9759;SDS011;4919;48.792;9.202;2023-05-07T16:35:58;1.00;;;1.00;;
9759;SDS011;4919;48.792;9.202;2023-05-07T16:38:43;1.20;;;1.10;;
9759;SDS011;4919;48.792;9.202;2023-05-07T16:41:28;0.97;;;0.93;;
9759;SDS011;4919;48.792;9.202;2023-05-07T16:44:13;1.00;;;1.00;;
9759;SDS011;4919;48.792;9.202;2023-05-07T16:46:58;1.03;;;1.03;;
9759;SDS011;4919;48.792;9.202;2023-05-07T16:49:43;1.10;;;1.10;;
9759;SDS011;4919;48.792;9.202;2023-05-07T16:52:28;1.30;;;1.20;;
9759;SDS011;4919;48.792;9.202;2023-05-07T16:55:13;1.30;;;1.20;;
9759;SDS011;4919;48.792;9.202;2023-05-07T16:57:58;1.00;;;1.00;;
9759;SDS011;4919;48.792;9.202;2023-05-07T17:00:43;1.87;;;1.10;;
9759;SDS011;4919;48.792;9.202;2023-05-07T17:03:28;1.00;;;1.00;;
9759;SDS011;4919;48.792;9.202;2023-05-07T17:06:12;1.77;;;1.00;;
9759;SDS011;4919;48.792;9.202;2023-05-07T17:08:57;0.80;;;0.80;;
9759;SDS011;4919;48.792;9.202;2023-05-07T17:11:42;0.80;;;0.80;;
9759;SDS011;4919;48.792;9.202;2023-05-07T17:14:27;1.10;;;1.00;;
9759;SDS011;4919;48.792;9.202;2023-05-07T17:17:12;0.90;;;0.90;;
9759;SDS011;4919;48.792;9.202;2023-05-07T17:19:57;1.00;;;1.00;;
9759;SDS011;4919;48.792;9.202;2023-05-07T17:22:42;1.10;;;1.00;;
9759;SDS011;4919;48.792;9.202;2023-05-07T17:25:40;0.90;;;0.90;;
9759;SDS011;4919;48.792;9.202;2023-05-07T17:28:25;0.90;;;0.90;;
9759;SDS011;4919;48.792;9.202;2023-05-07T17:31:10;1.00;;;1.00;;